Wetterdaten: aktuell Montag, 31.08.2026 22:30
Datum Zeit Arbeit-Z. Temp. A. Bod.+5cm Temp. A. min Temp. A. max Bl.Temp +1m BTemp -5cm BTemp -10cm BTemp -20cm BTemp -50cm Feuchte I. Feuchte A. BlattFeu +1m BFeucht -5cm BFeucht-10cm BFeucht-20cm BFeucht-50cm Luftdruck Regen Wind Richtung Richtung Sonnenschein ET UV Solar Taupunkt Windchill Windböen Empfang
31.08.2026 22:30 26,0 °C 17,6 °C 15,6 °C 17,6 °C 17,7 °C 18,9 °C 18,9 °C 20,6 °C 20,6 °C 20,6 °C 51 % 84 % 0 lf 200 cb 200 cb 200 cb 111 cb 1016,8 hPa 0,0 l/m² 1,8 km/h (1 Bft) O 99 ° 0 min 0,001 mm 0,0 UV-I 0 W/m² 14,9 °C 17,6 °C 6,4 km/h (2 Bft) 94,87 %
31.08.2026 21:30 26,0 °C 18,2 °C 15,6 °C 18,2 °C 18,3 °C 19,4 °C 19,4 °C 20,6 °C 20,6 °C 20,6 °C 50 % 82 % 0 lf 200 cb 200 cb 200 cb 112 cb 1016,2 hPa 0,0 l/m² 0,5 km/h (0 Bft) SO 124 ° 0 min 0,025 mm 0,0 UV-I 0 W/m² 15,1 °C 18,2 °C 3,2 km/h (1 Bft) 97,50 %
31.08.2026 20:30 25,9 °C 19,8 °C 16,1 °C 19,8 °C 19,9 °C 20,0 °C 20,0 °C 20,6 °C 20,6 °C 20,6 °C 50 % 73 % 0 lf 200 cb 200 cb 200 cb 112 cb 1015,7 hPa 0,0 l/m² 1,7 km/h (1 Bft) S 183 ° 0 min 0,025 mm 0,0 UV-I 0 W/m² 14,8 °C 19,8 °C 6,4 km/h (2 Bft) 96,58 %
31.08.2026 19:30 25,9 °C 20,1 °C 16,1 °C 19,9 °C 20,1 °C 20,0 °C 20,0 °C 21,1 °C 20,6 °C 20,6 °C 50 % 74 % 14 lf 200 cb 200 cb 200 cb 112 cb 1015,3 hPa 0,0 l/m² 4,3 km/h (1 Bft) S-SW 197 ° 0 min 0,051 mm 0,0 UV-I 14 W/m² 15,3 °C 20,1 °C 16,1 km/h (3 Bft) 96,61 %
31.08.2026 18:30 25,8 °C 19,2 °C 16,7 °C 19,0 °C 19,2 °C 20,6 °C 20,6 °C 21,1 °C 20,6 °C 20,6 °C 50 % 85 % 15 lf 200 cb 200 cb 200 cb 112 cb 1015,3 hPa 0,4 l/m² 3,8 km/h (1 Bft) S 177 ° 0 min 0,026 mm 0,0 UV-I 95 W/m² 16,6 °C 19,2 °C 11,3 km/h (2 Bft) 98,17 %
31.08.2026 17:30 25,7 °C 18,7 °C 16,7 °C 18,6 °C 18,8 °C 20,6 °C 20,6 °C 21,1 °C 20,6 °C 20,6 °C 49 % 85 % 15 lf 200 cb 200 cb 200 cb 112 cb 1014,6 hPa 2,0 l/m² 1,6 km/h (1 Bft) W 278 ° 10 min 0,228 mm 0,0 UV-I 47 W/m² 16,1 °C 18,7 °C 4,8 km/h (1 Bft) 95,76 %
31.08.2026 16:30 25,6 °C 23,9 °C 23,3 °C 23,9 °C 24,6 °C 20,6 °C 20,6 °C 21,1 °C 20,6 °C 20,6 °C 48 % 60 % 0 lf 200 cb 200 cb 200 cb 112 cb 1013,2 hPa 0,0 l/m² 4,0 km/h (1 Bft) W 269 ° 50 min 0,305 mm 1,0 UV-I 134 W/m² 15,7 °C 23,9 °C 14,5 km/h (3 Bft) 92,00 %
31.08.2026 15:30 25,1 °C 22,8 °C 22,2 °C 22,5 °C 22,8 °C 20,6 °C 20,6 °C 20,6 °C 20,6 °C 20,6 °C 47 % 64 % 0 lf 200 cb 200 cb 200 cb 112 cb 1014,1 hPa 0,0 l/m² 4,0 km/h (1 Bft) S-SW 206 ° 55 min 0,356 mm 3,3 UV-I 744 W/m² 15,6 °C 22,8 °C 12,9 km/h (3 Bft) 95,52 %
31.08.2026 14:30 25,1 °C 25,1 °C 24,4 °C 24,6 °C 25,1 °C 20,6 °C 20,6 °C 20,6 °C 20,6 °C 20,6 °C 45 % 52 % 0 lf 200 cb 200 cb 200 cb 111 cb 1013,8 hPa 0,0 l/m² 4,9 km/h (1 Bft) S 186 ° 60 min 0,355 mm 4,3 UV-I 874 W/m² 14,5 °C 25,1 °C 12,9 km/h (3 Bft) 96,61 %
31.08.2026 13:30 25,1 °C 24,1 °C 22,8 °C 23,7 °C 24,1 °C 20,6 °C 20,6 °C 20,6 °C 20,6 °C 20,6 °C 48 % 61 % 0 lf 200 cb 200 cb 200 cb 111 cb 1014,0 hPa 0,0 l/m² 6,3 km/h (2 Bft) SW 220 ° 60 min 0,153 mm 2,0 UV-I 933 W/m² 16,1 °C 24,1 °C 16,1 km/h (3 Bft) 96,61 %
31.08.2026 12:30 24,9 °C 22,4 °C 21,1 °C 22,2 °C 22,4 °C 20,6 °C 20,6 °C 20,6 °C 20,6 °C 20,6 °C 49 % 65 % 0 lf 200 cb 200 cb 200 cb 111 cb 1014,1 hPa 0,0 l/m² 5,5 km/h (1 Bft) W-SW 257 ° 40 min 0,203 mm 1,9 UV-I 246 W/m² 15,5 °C 22,4 °C 14,5 km/h (3 Bft) 96,03 %
31.08.2026 11:30 25,0 °C 22,7 °C 20,6 °C 22,6 °C 22,7 °C 20,6 °C 20,6 °C 20,6 °C 20,6 °C 20,6 °C 48 % 63 % 0 lf 200 cb 200 cb 200 cb 111 cb 1014,2 hPa 0,0 l/m² 6,3 km/h (2 Bft) S-SW 207 ° 50 min 0,228 mm 2,1 UV-I 255 W/m² 15,3 °C 22,7 °C 17,7 km/h (3 Bft) 94,50 %
31.08.2026 10:30 25,2 °C 21,6 °C 18,9 °C 21,4 °C 21,6 °C 20,0 °C 20,0 °C 20,6 °C 20,6 °C 20,6 °C 49 % 68 % 0 lf 200 cb 200 cb 200 cb 112 cb 1014,2 hPa 0,0 l/m² 4,1 km/h (1 Bft) W-SW 244 ° 50 min 0,153 mm 2,1 UV-I 255 W/m² 15,4 °C 21,6 °C 16,1 km/h (3 Bft) 99,07 %
31.08.2026 09:30 25,4 °C 19,9 °C 17,2 °C 19,9 °C 20,0 °C 19,4 °C 19,4 °C 20,6 °C 20,6 °C 20,6 °C 51 % 76 % 0 lf 200 cb 200 cb 200 cb 112 cb 1013,9 hPa 0,0 l/m² 4,1 km/h (1 Bft) SO 136 ° 0 min 0,051 mm 0,9 UV-I 84 W/m² 15,5 °C 19,9 °C 11,3 km/h (2 Bft) 97,14 %
31.08.2026 08:30 25,8 °C 19,3 °C 16,7 °C 19,1 °C 19,3 °C 19,4 °C 19,4 °C 20,6 °C 20,6 °C 20,6 °C 52 % 83 % 0 lf 200 cb 200 cb 200 cb 112 cb 1013,5 hPa 0,0 l/m² 1,4 km/h (1 Bft) N 355 ° 0 min 0,025 mm 0,0 UV-I 44 W/m² 16,3 °C 19,3 °C 4,8 km/h (1 Bft) 96,69 %
31.08.2026 07:30 26,2 °C 18,4 °C 16,7 °C 18,4 °C 18,4 °C 19,4 °C 19,4 °C 20,6 °C 21,1 °C 20,6 °C 53 % 91 % 15 lf 200 cb 200 cb 200 cb 112 cb 1013,2 hPa 0,0 l/m² 0,3 km/h (0 Bft) S-SW 213 ° 0 min 0,000 mm 0,0 UV-I 26 W/m² 16,9 °C 18,4 °C 3,2 km/h (1 Bft) 94,92 %
31.08.2026 06:30 26,2 °C 19,3 °C 16,7 °C 19,3 °C 19,3 °C 20,0 °C 20,0 °C 21,1 °C 21,1 °C 20,6 °C 53 % 88 % 15 lf 200 cb 200 cb 200 cb 112 cb 1012,8 hPa 0,0 l/m² 1,8 km/h (1 Bft) S-SW 209 ° 0 min 0,025 mm 0,0 UV-I 0 W/m² 17,3 °C 19,3 °C 9,7 km/h (2 Bft) 97,54 %
31.08.2026 05:30 26,3 °C 19,6 °C 17,2 °C 19,6 °C 19,7 °C 20,0 °C 20,0 °C 21,1 °C 21,1 °C 20,6 °C 53 % 87 % 15 lf 200 cb 200 cb 200 cb 112 cb 1012,4 hPa 1,2 l/m² 4,5 km/h (1 Bft) W-SW 237 ° 0 min 0,000 mm 0,0 UV-I 0 W/m² 17,4 °C 19,6 °C 11,3 km/h (2 Bft) 96,49 %
31.08.2026 04:30 26,3 °C 19,7 °C 17,2 °C 19,7 °C 19,8 °C 20,0 °C 20,0 °C 21,1 °C 21,1 °C 20,6 °C 53 % 89 % 15 lf 200 cb 200 cb 200 cb 112 cb 1011,8 hPa 1,0 l/m² 2,9 km/h (1 Bft) W-NW 288 ° 0 min 0,000 mm 0,0 UV-I 0 W/m² 17,8 °C 19,7 °C 8,0 km/h (2 Bft) 98,37 %
31.08.2026 03:30 26,3 °C 19,3 °C 17,2 °C 19,3 °C 19,5 °C 20,0 °C 20,0 °C 21,1 °C 21,1 °C 20,6 °C 53 % 91 % 15 lf 200 cb 200 cb 200 cb 112 cb 1011,4 hPa 1,2 l/m² 0,5 km/h (0 Bft) NW 305 ° 0 min 0,026 mm 0,0 UV-I 0 W/m² 17,8 °C 19,3 °C 3,2 km/h (1 Bft) 96,61 %
31.08.2026 02:30 26,3 °C 20,1 °C 17,2 °C 20,1 °C 20,2 °C 20,6 °C 20,6 °C 21,1 °C 21,1 °C 20,6 °C 52 % 87 % 15 lf 200 cb 200 cb 200 cb 112 cb 1011,4 hPa 0,2 l/m² 2,7 km/h (1 Bft) W-SW 257 ° 0 min 0,025 mm 0,0 UV-I 0 W/m² 17,9 °C 20,1 °C 9,7 km/h (2 Bft) 95,73 %
31.08.2026 01:30 26,3 °C 20,3 °C 17,2 °C 20,3 °C 20,3 °C 20,6 °C 20,6 °C 21,1 °C 21,1 °C 20,6 °C 51 % 82 % 15 lf 200 cb 200 cb 200 cb 111 cb 1011,0 hPa 1,0 l/m² 2,7 km/h (1 Bft) W-SW 240 ° 0 min 0,051 mm 0,0 UV-I 0 W/m² 17,1 °C 20,3 °C 8,0 km/h (2 Bft) 96,58 %
31.08.2026 00:30 26,2 °C 21,2 °C 20,0 °C 21,2 °C 21,2 °C 20,6 °C 20,6 °C 21,7 °C 21,1 °C 20,6 °C 51 % 73 % 0 lf 200 cb 200 cb 200 cb 111 cb 1009,9 hPa 0,0 l/m² 7,7 km/h (2 Bft) O-SO 121 ° 0 min 0,000 mm 0,0 UV-I 0 W/m² 16,2 °C 20,7 °C 19,3 km/h (3 Bft) 97,52 %
30.08.2026 23:30 26,3 °C 21,8 °C 20,0 °C 21,8 °C 21,9 °C 21,1 °C 21,1 °C 21,7 °C 21,1 °C 20,6 °C 50 % 71 % 0 lf 200 cb 200 cb 200 cb 111 cb 1010,1 hPa 0,0 l/m² 5,4 km/h (1 Bft) S-SW 213 ° 0 min 0,051 mm 0,0 UV-I 0 W/m² 16,3 °C 21,8 °C 12,9 km/h (3 Bft) 93,50 %
30.08.2026 23:00 26,3 °C 22,2 °C 20,6 °C 22,1 °C 22,2 °C 21,1 °C 21,1 °C 21,7 °C 21,1 °C 20,6 °C 50 % 70 % 0 lf 200 cb 200 cb 200 cb 111 cb 1010,3 hPa 0,0 l/m² 6,0 km/h (2 Bft) S-SW 207 ° 0 min 0,000 mm 0,0 UV-I 0 W/m² 16,5 °C 22,2 °C 14,5 km/h (3 Bft) 94,17 %
_ Min-Zeit 12:00 22:25 21:35 22:25 22:20 22:30 22:30 07:10 07:55 23:00 14:20 14:05 23:00 23:00 23:00 23:00 23:00 00:40 - 01:50 - - - - - - 14:00 22:30 01:45 06:05
Minimum _ 24,8 °C 17,6 °C 15,0 °C 17,6 °C 17,7 °C 18,9 °C 18,9 °C 20,6 °C 20,6 °C 20,6 °C 44 % 52 % 0 lf 200 cb 200 cb 200 cb 111 cb 1009,6 hPa - 0,1 km/h (0 Bft) - - - - - - 14,1 °C 17,6 °C 1,6 km/h (1 Bft) 89,57 %
_ Max-Zeit 23:00 14:20 16:20 14:20 14:20 23:00 23:00 23:00 23:00 23:00 04:50 03:40 01:05 23:00 23:00 23:00 01:45 22:25 17:10 17:10 - - 09:35 15:00 14:10 14:20 03:25 14:15 13:50 07:00
Maximum _ 26,3 °C 25,3 °C 25,6 °C 25,2 °C 25,3 °C 21,1 °C 21,1 °C 21,7 °C 21,1 °C 20,6 °C 54 % 92 % 15 lf 200 cb 200 cb 200 cb 112 cb 1016,8 hPa 0,8 l/m² 13,2 km/h
N (3 Bft)
- - 5 min 0,356 mm 4,7 UV-I 979 W/m² 18,0 °C 25,2 °C 32,2 km/h
SW (5 Bft)
100,00 %
Durchschnitt _ 25,8 °C 20,8 °C 18,7 °C 20,7 °C 20,9 °C 20,3 °C 20,3 °C 21,0 °C 20,8 °C 20,6 °C 50 % 76 % 6 lf 200 cb 200 cb 200 cb 112 cb 1013,2 hPa #7,0 l/m² 4,0 km/h (1 Bft) S-SW - #6:15 h #2,337 mm 2,0 UV-I 230 W/m² 16,1 °C 20,7 °C 11,5 km/h (2 Bft) 95,69 %
copy; 2009 Dieter Kraft